»·PEaware :: AIJ213 KPHX-KPSP

AIJ213 :: KPHX-KPSP

FLIGHT INFORMATION

Flight Status: Arrived
Operator: Interjet
More flights by this operator :: More flights under this callsign
Pilot: William H. (1753)
Aircraft: AIRBUS A320
(A320)
More flights by this aircraft type
Origin: KPHX Phoenix Sky Harbor Intl
United States
Destination: KPSP Palm Springs Intl
United States
More flights between these airports :: More routes between these airports
Route: +KEENS1 HRRBR CURIV J212 DECAS SBONO1
File this flight plan on PilotEdge
Remarks: PBN / A1B1C1D1O1S1 DOF / 180427 REG / N760FC EET / KZLA0017 OPR / AIJ PER / C RMK / TCAS
Altitude:
(Current/Filed)
28,000ft
Speed:
(Current/Filed)
429kts
Departed: 27-Apr-18 04:37 PM
Arrived: 27-Apr-18 05:23 PM
Distance/Time
Traveled:
226nm/0:46
Distance/Time
To Go:
Arrived

Flight Plot

Page will automatically refresh every two minutes.

Flight plan parsing failed; only flown route is shown


Map Options




Map Legend


Flown Route
Filed Route
Departure Airport
Arrival Airport
Navaid (VOR, NDB)
Fix

Horizontal Profiles

Position Reports

Time Latitude Longitude Heading Altitude Ground
Speed
27-Apr-18 15:56 33.433717 -111.998743 322 1126ft 0kts
27-Apr-18 15:57 33.433717 -111.998743 322 1126ft 0kts
27-Apr-18 15:58 33.433717 -111.998743 322 1126ft 0kts
27-Apr-18 15:59 33.433717 -111.998743 322 1126ft 0kts
27-Apr-18 16:00 33.433717 -111.998743 322 1126ft 0kts
27-Apr-18 16:08 33.433717 -111.998743 322 1126ft 0kts
27-Apr-18 16:09 33.433717 -111.998743 322 1126ft 0kts
27-Apr-18 16:10 33.433717 -111.998743 322 1126ft 0kts
27-Apr-18 16:11 33.433717 -111.998743 322 1126ft 0kts
27-Apr-18 16:12 33.433717 -111.998743 322 1126ft 0kts
27-Apr-18 16:13 33.433717 -111.998743 322 1126ft 0kts
27-Apr-18 16:14 33.433717 -111.998743 322 1126ft 0kts
27-Apr-18 16:15 33.433717 -111.998743 322 1126ft 0kts
27-Apr-18 16:16 33.433717 -111.998743 322 1126ft 0kts
27-Apr-18 16:17 33.433717 -111.998743 322 1126ft 0kts
27-Apr-18 16:18 33.433717 -111.998743 322 1126ft 0kts
27-Apr-18 16:19 33.433717 -111.998743 322 1126ft 0kts
27-Apr-18 16:20 33.433717 -111.998743 322 1126ft 0kts
27-Apr-18 16:21 33.433716 -111.998743 322 1126ft 0kts
27-Apr-18 16:22 33.433737 -111.998285 207 1126ft 2kts
27-Apr-18 16:23 33.433891 -111.998250 172 1126ft 0kts
27-Apr-18 16:24 33.433891 -111.998250 172 1126ft 0kts
27-Apr-18 16:25 33.433891 -111.998250 172 1126ft 0kts
27-Apr-18 16:26 33.433891 -111.998250 172 1126ft 0kts
27-Apr-18 16:27 33.433891 -111.998250 172 1126ft 0kts
27-Apr-18 16:28 33.433891 -111.998250 172 1126ft 0kts
27-Apr-18 16:29 33.433891 -111.998250 172 1126ft 0kts
27-Apr-18 16:30 33.433891 -111.998250 172 1126ft 0kts
27-Apr-18 16:31 33.433891 -111.998250 172 1126ft 0kts
27-Apr-18 16:32 33.433846 -111.998245 175 1126ft 4kts
27-Apr-18 16:33 33.432177 -111.997178 86 1125ft 7kts
27-Apr-18 16:34 33.432094 -111.993667 109 1125ft 5kts
27-Apr-18 16:35 33.431043 -111.994040 268 1125ft 1kts
27-Apr-18 16:36 33.430629 -112.040944 269 2870ft 231kts
27-Apr-18 16:37 33.411832 -112.126402 249 7513ft 296kts
27-Apr-18 16:38 33.394204 -112.223437 279 11727ft 326kts
27-Apr-18 16:39 33.410430 -112.330952 278 15545ft 343kts
27-Apr-18 16:40 33.428194 -112.450994 278 17483ft 405kts
27-Apr-18 16:41 33.447931 -112.585980 276 21182ft 398kts
27-Apr-18 16:42 33.451699 -112.716154 268 24463ft 391kts
27-Apr-18 16:43 33.461911 -112.848839 280 25884ft 422kts
27-Apr-18 16:44 33.488132 -112.988824 280 27284ft 440kts
27-Apr-18 16:45 33.515527 -113.136403 281 27871ft 468kts
27-Apr-18 16:46 33.541735 -113.278660 281 27891ft 463kts
27-Apr-18 16:47 33.566819 -113.415646 281 27892ft 464kts
27-Apr-18 16:48 33.594377 -113.565833 281 27886ft 463kts
27-Apr-18 16:49 33.622512 -113.716764 280 27867ft 463kts
27-Apr-18 16:50 33.650379 -113.867607 280 27866ft 464kts
27-Apr-18 16:51 33.678052 -114.018277 280 27866ft 464kts
27-Apr-18 16:52 33.705580 -114.169256 280 27865ft 463kts
27-Apr-18 16:53 33.732974 -114.320608 280 27864ft 463kts
27-Apr-18 16:54 33.760109 -114.471639 280 27864ft 463kts
27-Apr-18 16:55 33.777747 -114.624024 273 27868ft 462kts
27-Apr-18 16:56 33.786314 -114.772199 272 27868ft 462kts
27-Apr-18 16:57 33.795029 -114.926036 272 27866ft 462kts
27-Apr-18 16:58 33.803029 -115.071265 272 27884ft 408kts
27-Apr-18 16:59 33.810397 -115.206564 272 27880ft 402kts
27-Apr-18 17:00 33.817005 -115.331389 272 27785ft 354kts
27-Apr-18 17:01 33.824674 -115.453503 280 24520ft 384kts
27-Apr-18 17:02 33.860169 -115.569578 289 23866ft 361kts
27-Apr-18 17:03 33.895447 -115.679532 289 23858ft 354kts
27-Apr-18 17:04 33.912416 -115.790601 264 23074ft 328kts
27-Apr-18 17:05 33.905857 -115.891554 264 21733ft 284kts
27-Apr-18 17:06 33.899840 -115.984532 264 19440ft 275kts
27-Apr-18 17:07 33.889884 -116.073221 237 17155ft 266kts
27-Apr-18 17:08 33.826220 -116.111632 192 14961ft 262kts
27-Apr-18 17:09 33.821664 -116.112668 192 14827ft 261kts
27-Apr-18 17:10 33.821664 -116.112668 192 14827ft 261kts
27-Apr-18 17:11 33.821664 -116.112668 192 14827ft 261kts
27-Apr-18 17:12 33.820743 -116.112875 192 14800ft 261kts
27-Apr-18 17:13 33.749197 -116.119394 181 12437ft 265kts
27-Apr-18 17:14 33.678878 -116.128238 219 10182ft 257kts
27-Apr-18 17:15 33.676778 -116.203704 292 8100ft 249kts
27-Apr-18 17:16 33.703254 -116.278163 280 6130ft 239kts
27-Apr-18 17:17 33.682000 -116.350851 260 4389ft 224kts
27-Apr-18 17:18 33.716962 -116.403302 322 3125ft 204kts
27-Apr-18 17:19 33.757993 -116.441374 323 2084ft 161kts
27-Apr-18 17:20 33.785631 -116.469503 326 1314ft 128kts
27-Apr-18 17:21 33.814587 -116.494492 321 579ft 125kts
27-Apr-18 17:22 33.832332 -116.510057 324 439ft 31kts

Navigation Log

Ident Type
Flight plan parsing failed, navigation log unavailable